createdAt,value
2023-05-09T00:02:34.638Z,9.93
2023-05-09T00:05:37.925Z,9.99
2023-05-09T00:08:41.821Z,9.91
2023-05-09T00:11:44.951Z,9.89
2023-05-09T00:14:51.803Z,9.79
2023-05-09T00:17:55.109Z,9.78
2023-05-09T00:20:58.399Z,9.55
2023-05-09T00:24:01.594Z,9.56
2023-05-09T00:27:05.149Z,9.43
2023-05-09T00:30:09.526Z,9.29
2023-05-09T00:33:13.063Z,9.16
2023-05-09T00:36:16.306Z,9.07
2023-05-09T00:39:19.495Z,8.98
2023-05-09T00:42:22.757Z,9.07
2023-05-09T00:45:26.239Z,8.88
2023-05-09T00:48:29.550Z,8.76
2023-05-09T00:51:33.598Z,8.55
2023-05-09T00:54:36.980Z,8.46
2023-05-09T00:57:40.195Z,8.48
2023-05-09T01:00:43.694Z,8.44
2023-05-09T01:03:47.692Z,8.33
2023-05-09T01:07:25.237Z,8.30
2023-05-09T01:10:52.111Z,8.33
2023-05-09T01:14:17.994Z,8.14
2023-05-09T01:17:27.955Z,8.11
2023-05-09T01:20:46.155Z,8.07
2023-05-09T01:24:08.621Z,7.93
2023-05-09T01:27:27.086Z,7.92
2023-05-09T01:30:31.500Z,7.88
2023-05-09T01:33:38.890Z,7.82
2023-05-09T01:36:43.615Z,7.88
2023-05-09T01:39:50.654Z,7.91
2023-05-09T01:43:07.226Z,7.86
2023-05-09T01:46:13.062Z,7.83
2023-05-09T01:49:20.428Z,7.82
2023-05-09T01:57:08.403Z,7.74
2023-05-09T02:00:13.978Z,7.75
2023-05-09T02:03:17.416Z,7.63
2023-05-09T02:06:23.585Z,7.66
2023-05-09T02:09:27.481Z,7.68
2023-05-09T02:12:31.099Z,7.55
2023-05-09T02:20:16.915Z,7.47
2023-05-09T02:23:20.952Z,7.39
2023-05-09T02:26:28.714Z,7.30
2023-05-09T02:29:40.805Z,7.08
2023-05-09T02:32:47.301Z,7.31
2023-05-09T02:35:52.127Z,7.30
2023-05-09T02:38:55.722Z,7.04
2023-05-09T02:42:09.601Z,6.99
2023-05-09T02:45:17.513Z,7.00
2023-05-09T02:48:20.694Z,6.96
2023-05-09T02:51:23.953Z,6.89
2023-05-09T02:54:27.154Z,6.86
2023-05-09T02:57:30.461Z,6.86
2023-05-09T03:00:33.706Z,6.83
2023-05-09T03:03:38.291Z,6.96
2023-05-09T03:06:41.913Z,6.93
2023-05-09T03:09:44.982Z,6.78
2023-05-09T03:12:49.249Z,6.84
2023-05-09T03:15:52.340Z,6.74
2023-05-09T03:18:55.520Z,6.72
2023-05-09T03:21:58.815Z,6.72
2023-05-09T03:25:03.442Z,6.65
2023-05-09T03:28:07.996Z,6.57
2023-05-09T03:31:11.675Z,6.51
2023-05-09T03:34:15.471Z,6.59
2023-05-09T03:37:20.524Z,6.62
2023-05-09T03:40:23.848Z,6.57
2023-05-09T03:43:35.764Z,6.57
2023-05-09T03:46:39.234Z,6.56
2023-05-09T03:49:42.915Z,6.58
2023-05-09T03:52:48.644Z,6.63
2023-05-09T03:55:53.596Z,6.70
2023-05-09T03:58:57.260Z,6.91
2023-05-09T04:02:01.760Z,6.97
2023-05-09T04:05:06.376Z,7.09
2023-05-09T04:08:14.126Z,7.11
2023-05-09T04:11:17.944Z,7.25
2023-05-09T04:14:23.736Z,7.43
2023-05-09T04:17:28.267Z,7.55
2023-05-09T04:20:31.966Z,7.62
2023-05-09T04:23:35.324Z,7.67
2023-05-09T04:26:39.306Z,7.64
2023-05-09T04:29:46.466Z,7.77
2023-05-09T04:32:50.075Z,7.92
2023-05-09T04:35:54.683Z,8.17
2023-05-09T04:38:58.300Z,8.45
2023-05-09T04:42:02.866Z,8.83
2023-05-09T04:45:07.594Z,9.15
2023-05-09T04:48:10.837Z,9.39
2023-05-09T04:51:13.896Z,9.55
2023-05-09T04:54:17.043Z,9.71
2023-05-09T04:57:21.108Z,9.88
2023-05-09T05:00:30.292Z,10.08
2023-05-09T05:03:33.935Z,10.36
2023-05-09T05:06:37.481Z,10.63
2023-05-09T05:09:41.240Z,10.79
2023-05-09T05:12:44.506Z,10.89
2023-05-09T05:15:50.221Z,10.86
2023-05-09T05:18:54.311Z,10.98
2023-05-09T05:21:58.599Z,11.06
2023-05-09T05:25:05.744Z,11.20
2023-05-09T05:28:10.222Z,11.42
2023-05-09T05:31:14.863Z,11.55
2023-05-09T05:34:18.466Z,11.72
2023-05-09T05:37:22.849Z,11.98
2023-05-09T05:40:26.409Z,12.03
2023-05-09T05:43:31.563Z,12.21
2023-05-09T05:46:35.245Z,12.58
2023-05-09T05:49:39.203Z,12.83
2023-05-09T05:52:42.375Z,12.92
2023-05-09T05:55:49.416Z,12.93
2023-05-09T05:58:52.684Z,13.20
2023-05-09T06:01:56.932Z,13.32
2023-05-09T06:05:00.845Z,13.41
2023-05-09T06:08:04.438Z,13.49
2023-05-09T06:11:08.760Z,13.65
2023-05-09T06:14:11.850Z,13.54
2023-05-09T06:17:16.599Z,13.64
2023-05-09T06:20:20.799Z,13.69
2023-05-09T06:23:24.043Z,13.84
2023-05-09T06:26:27.528Z,14.09
2023-05-09T06:29:31.328Z,14.16
2023-05-09T06:32:34.290Z,14.18
2023-05-09T06:35:37.217Z,14.17
2023-05-09T06:38:40.566Z,14.17
2023-05-09T06:41:43.566Z,14.23
2023-05-09T06:44:46.757Z,14.39
2023-05-09T06:47:49.835Z,14.46
2023-05-09T06:50:52.790Z,14.77
2023-05-09T06:53:55.997Z,14.76
2023-05-09T07:01:41.309Z,14.42
2023-05-09T07:04:47.326Z,14.79
2023-05-09T07:07:51.183Z,14.98
2023-05-09T07:10:54.507Z,15.14
2023-05-09T07:13:57.925Z,15.06
2023-05-09T07:17:18.001Z,15.08
2023-05-09T07:20:25.981Z,15.16
2023-05-09T07:23:29.268Z,15.28
2023-05-09T07:26:32.464Z,15.46
2023-05-09T07:34:20.001Z,15.44
2023-05-09T07:37:23.164Z,15.78
2023-05-09T07:40:26.613Z,15.62
2023-05-09T07:43:29.588Z,15.54
2023-05-09T07:46:32.822Z,15.51
2023-05-09T07:49:35.946Z,15.63
2023-05-09T07:52:39.059Z,15.74
2023-05-09T07:55:42.136Z,15.66
2023-05-09T07:58:48.115Z,15.93
2023-05-09T08:01:51.684Z,15.85
2023-05-09T08:04:55.041Z,15.88
2023-05-09T08:07:58.786Z,15.92
2023-05-09T08:11:01.849Z,15.87
2023-05-09T08:14:04.830Z,15.81
2023-05-09T08:17:07.959Z,16.01
2023-05-09T08:20:12.077Z,16.14
2023-05-09T08:23:15.045Z,16.01
2023-05-09T08:26:17.967Z,16.15
2023-05-09T08:29:20.856Z,16.14
2023-05-09T08:32:23.890Z,16.16
2023-05-09T08:35:26.840Z,16.24
2023-05-09T08:38:30.348Z,16.34
2023-05-09T08:41:36.304Z,16.51
2023-05-09T08:44:39.759Z,16.46
2023-05-09T08:47:43.248Z,16.52
2023-05-09T08:50:46.645Z,16.36
2023-05-09T08:53:50.851Z,16.42
2023-05-09T08:56:55.026Z,16.60
2023-05-09T08:59:59.613Z,16.53
2023-05-09T09:03:04.098Z,16.33
2023-05-09T09:06:09.331Z,16.36
2023-05-09T09:18:39.901Z,16.71
2023-05-09T09:21:46.903Z,16.73
2023-05-09T09:24:51.131Z,17.07
2023-05-09T09:27:56.323Z,16.84
2023-05-09T09:31:01.584Z,16.83
2023-05-09T09:34:05.010Z,16.96
2023-05-09T09:37:09.034Z,17.11
2023-05-09T09:40:14.563Z,17.24
2023-05-09T09:43:18.071Z,17.14
2023-05-09T09:51:11.572Z,17.57
2023-05-09T09:54:15.147Z,17.59
2023-05-09T09:57:38.487Z,17.54
2023-05-09T10:00:41.622Z,17.73
2023-05-09T10:03:46.592Z,17.80
2023-05-09T10:06:58.298Z,17.75
2023-05-09T10:10:06.174Z,17.61
2023-05-09T10:13:12.107Z,17.37
2023-05-09T10:16:16.162Z,17.54
2023-05-09T10:19:23.610Z,17.82
2023-05-09T10:22:27.430Z,18.07
2023-05-09T10:25:43.163Z,18.14
2023-05-09T10:28:49.757Z,18.40
2023-05-09T10:31:58.852Z,18.63
2023-05-09T10:35:06.350Z,18.73
2023-05-09T10:38:12.586Z,19.09
2023-05-09T10:41:18.818Z,19.36
2023-05-09T10:44:25.256Z,19.61
2023-05-09T10:47:32.137Z,19.56
2023-05-09T10:50:37.736Z,19.98
2023-05-09T10:53:46.547Z,19.93
2023-05-09T10:56:49.483Z,19.60
2023-05-09T10:59:52.679Z,19.95
2023-05-09T11:03:08.306Z,19.92
2023-05-09T11:06:52.022Z,19.74
2023-05-09T11:14:45.161Z,20.11
2023-05-09T11:18:05.671Z,20.18
2023-05-09T11:21:11.839Z,20.31
2023-05-09T11:24:19.517Z,20.77
2023-05-09T11:27:27.195Z,20.63
2023-05-09T11:30:42.133Z,20.75
2023-05-09T11:33:49.257Z,21.04
2023-05-09T11:37:11.074Z,20.12
2023-05-09T11:40:17.559Z,20.09
2023-05-09T11:43:20.879Z,20.32
2023-05-09T11:46:26.911Z,20.62
2023-05-09T11:49:30.380Z,20.72
2023-05-09T11:52:33.749Z,20.63
2023-05-09T11:55:38.442Z,20.56
2023-05-09T11:58:42.359Z,20.73
2023-05-09T12:01:45.699Z,20.13
2023-05-09T12:04:52.544Z,20.62
2023-05-09T12:07:56.630Z,20.63
2023-05-09T12:11:10.365Z,19.77
2023-05-09T12:14:32.836Z,19.32
2023-05-09T12:17:36.834Z,19.06
2023-05-09T12:20:57.969Z,18.91
2023-05-09T12:24:01.504Z,18.79
2023-05-09T12:27:05.694Z,18.57
2023-05-09T12:30:14.535Z,18.49
2023-05-09T12:33:18.336Z,18.58
2023-05-09T12:36:22.219Z,19.16
2023-05-09T12:39:27.027Z,19.88
2023-05-09T12:42:32.008Z,20.21
2023-05-09T12:45:35.825Z,20.21
2023-05-09T12:48:39.623Z,19.48
2023-05-09T12:51:51.888Z,19.14
2023-05-09T12:54:55.266Z,18.90
2023-05-09T12:58:03.464Z,18.83
2023-05-09T13:01:07.526Z,19.35
2023-05-09T13:04:12.731Z,19.26
2023-05-09T13:07:16.491Z,19.55
2023-05-09T13:10:24.194Z,19.99
2023-05-09T13:13:29.719Z,20.05
2023-05-09T13:16:33.229Z,20.48
2023-05-09T13:19:39.529Z,20.49
2023-05-09T13:22:44.916Z,20.06
2023-05-09T13:25:48.347Z,19.50
2023-05-09T13:28:51.439Z,19.43
2023-05-09T13:31:54.641Z,19.52
2023-05-09T13:34:58.129Z,19.59
2023-05-09T13:38:01.428Z,19.81
2023-05-09T13:41:04.993Z,19.52
2023-05-09T13:44:07.965Z,18.98
2023-05-09T13:47:13.555Z,18.77
2023-05-09T13:50:17.097Z,18.67
2023-05-09T13:53:20.695Z,18.97
2023-05-09T13:56:25.457Z,19.15
2023-05-09T13:59:29.132Z,19.13
2023-05-09T14:02:32.349Z,19.04
2023-05-09T14:05:35.579Z,18.80
2023-05-09T14:08:39.736Z,18.70
2023-05-09T14:11:43.119Z,18.58
2023-05-09T14:14:46.199Z,18.41
2023-05-09T14:17:49.270Z,18.47
2023-05-09T14:20:55.068Z,18.41
2023-05-09T14:23:58.336Z,18.54
2023-05-09T14:27:01.818Z,18.86
2023-05-09T14:30:05.416Z,18.98
2023-05-09T14:33:09.096Z,18.87
2023-05-09T14:36:12.666Z,18.89
2023-05-09T14:39:16.193Z,18.77
2023-05-09T14:42:19.970Z,18.56
2023-05-09T14:45:23.197Z,18.28
2023-05-09T14:48:28.642Z,18.22
2023-05-09T14:51:33.435Z,18.27
2023-05-09T14:54:36.608Z,18.42
2023-05-09T14:57:40.364Z,18.36
2023-05-09T15:00:44.720Z,18.58
2023-05-09T15:03:48.180Z,18.60
2023-05-09T15:06:51.239Z,18.61
2023-05-09T15:09:54.650Z,18.66
2023-05-09T15:12:58.425Z,18.59
2023-05-09T15:16:01.431Z,18.55
2023-05-09T15:19:05.791Z,18.48
2023-05-09T15:22:08.939Z,18.67
2023-05-09T15:25:14.702Z,18.66
2023-05-09T15:28:17.677Z,18.74
2023-05-09T15:31:21.998Z,18.79
2023-05-09T15:34:25.427Z,18.75
2023-05-09T15:37:28.395Z,18.73
2023-05-09T15:40:34.303Z,18.59
2023-05-09T15:43:37.520Z,18.50
2023-05-09T15:46:41.132Z,18.35
2023-05-09T15:49:44.464Z,18.17
2023-05-09T15:52:47.479Z,18.10
2023-05-09T15:55:50.518Z,18.00
2023-05-09T15:58:53.467Z,17.91
2023-05-09T16:01:56.902Z,17.90
2023-05-09T16:05:00.130Z,18.04
2023-05-09T16:08:03.049Z,18.02
2023-05-09T16:11:06.089Z,18.01
2023-05-09T16:14:11.800Z,18.02
2023-05-09T16:17:15.021Z,18.05
2023-05-09T16:20:18.604Z,17.97
2023-05-09T16:23:23.692Z,17.94
2023-05-09T16:26:27.065Z,17.99
2023-05-09T16:29:31.099Z,17.93
2023-05-09T16:32:34.599Z,17.96
2023-05-09T16:35:37.676Z,17.97
2023-05-09T16:38:41.040Z,17.99
2023-05-09T16:41:44.135Z,17.86
2023-05-09T16:44:47.909Z,17.73
2023-05-09T16:47:51.325Z,17.67
2023-05-09T16:51:00.597Z,17.60
2023-05-09T16:54:03.822Z,17.51
2023-05-09T16:57:07.294Z,17.42
2023-05-09T17:00:11.174Z,17.29
2023-05-09T17:03:14.635Z,17.25
2023-05-09T17:06:18.071Z,17.10
2023-05-09T17:09:21.090Z,17.05
2023-05-09T17:12:24.736Z,17.04
2023-05-09T17:15:28.779Z,17.01
2023-05-09T17:18:37.506Z,16.95
2023-05-09T17:21:41.827Z,16.97
2023-05-09T17:24:44.823Z,16.92
2023-05-09T17:27:49.391Z,17.01
2023-05-09T17:30:52.662Z,16.90
2023-05-09T17:33:56.060Z,16.79
2023-05-09T17:37:02.050Z,16.84
2023-05-09T17:40:06.441Z,16.89
2023-05-09T17:43:09.469Z,16.76
2023-05-09T17:46:14.975Z,16.76
2023-05-09T17:49:18.656Z,16.75
2023-05-09T17:52:22.353Z,16.70
2023-05-09T17:55:25.713Z,16.73
2023-05-09T17:58:30.035Z,16.72
2023-05-09T18:01:33.143Z,16.69
2023-05-09T18:04:37.105Z,16.60
2023-05-09T18:07:40.838Z,16.47
2023-05-09T18:10:44.297Z,16.42
2023-05-09T18:13:47.505Z,16.34
2023-05-09T18:16:51.183Z,16.31
2023-05-09T18:19:54.365Z,16.26
2023-05-09T18:22:58.057Z,16.22
2023-05-09T18:26:01.814Z,16.09
2023-05-09T18:29:04.825Z,16.07
2023-05-09T18:32:08.041Z,15.98
2023-05-09T18:35:11.305Z,16.02
2023-05-09T18:38:16.960Z,15.96
2023-05-09T18:41:20.032Z,15.90
2023-05-09T18:44:23.246Z,15.93
2023-05-09T18:47:29.253Z,15.96
2023-05-09T18:50:33.853Z,15.91
2023-05-09T18:53:38.046Z,15.86
2023-05-09T18:56:42.522Z,15.79
2023-05-09T18:59:46.519Z,15.77
2023-05-09T19:02:52.585Z,15.67
2023-05-09T19:05:56.150Z,15.68
2023-05-09T19:09:04.311Z,15.67
2023-05-09T19:12:09.216Z,15.54
2023-05-09T19:15:13.699Z,15.51
2023-05-09T19:18:18.027Z,15.58
2023-05-09T19:21:21.890Z,15.57
2023-05-09T19:24:25.320Z,15.54
2023-05-09T19:27:28.855Z,15.49
2023-05-09T19:30:32.409Z,15.54
2023-05-09T19:33:36.049Z,15.47
2023-05-09T19:36:39.906Z,15.48
2023-05-09T19:39:43.253Z,15.50
2023-05-09T19:42:46.787Z,15.36
2023-05-09T19:45:53.532Z,15.34
2023-05-09T19:48:57.493Z,15.31
2023-05-09T19:52:01.285Z,15.22
2023-05-09T19:55:06.145Z,15.31
2023-05-09T19:58:09.648Z,15.31
2023-05-09T20:01:17.563Z,15.12
2023-05-09T20:04:22.274Z,15.13
2023-05-09T20:07:26.307Z,15.29
2023-05-09T20:10:31.045Z,15.35
2023-05-09T20:13:34.174Z,15.29
2023-05-09T20:16:38.545Z,15.35
2023-05-09T20:19:44.454Z,15.18
2023-05-09T20:22:47.997Z,15.21
2023-05-09T20:25:51.005Z,15.08
2023-05-09T20:29:01.677Z,14.98
2023-05-09T20:32:04.919Z,14.95
2023-05-09T20:35:08.383Z,15.02
2023-05-09T20:38:12.299Z,15.02
2023-05-09T20:41:15.894Z,14.98
2023-05-09T20:44:19.350Z,14.90
2023-05-09T20:47:22.688Z,14.99
2023-05-09T20:50:26.173Z,14.94
2023-05-09T20:53:31.962Z,14.93
2023-05-09T20:56:35.765Z,14.88
2023-05-09T20:59:39.189Z,14.83
2023-05-09T21:02:42.350Z,14.77
2023-05-09T21:05:46.570Z,14.66
2023-05-09T21:08:49.870Z,14.57
2023-05-09T21:11:52.831Z,14.53
2023-05-09T21:14:56.614Z,14.34
2023-05-09T21:17:59.785Z,14.32
2023-05-09T21:21:05.510Z,14.33
2023-05-09T21:24:09.767Z,14.18
2023-05-09T21:27:12.890Z,14.08
2023-05-09T21:30:20.693Z,13.90
2023-05-09T21:33:23.692Z,13.83
2023-05-09T21:36:27.059Z,13.93
2023-05-09T21:39:31.306Z,13.77
2023-05-09T21:42:37.425Z,13.81
2023-05-09T21:45:40.649Z,13.83
2023-05-09T21:48:43.675Z,13.88
2023-05-09T21:51:46.834Z,14.04
2023-05-09T21:54:50.089Z,14.09
2023-05-09T21:57:53.243Z,14.13
2023-05-09T22:00:56.363Z,13.79
2023-05-09T22:03:59.400Z,13.65
2023-05-09T22:07:02.537Z,13.42
2023-05-09T22:10:06.323Z,13.26
2023-05-09T22:13:09.695Z,12.99
2023-05-09T22:16:13.499Z,12.97
2023-05-09T22:19:17.593Z,12.98
2023-05-09T22:22:23.584Z,12.87
2023-05-09T22:25:27.199Z,12.80
2023-05-09T22:28:30.635Z,12.65
2023-05-09T22:31:35.997Z,12.59
2023-05-09T22:34:39.442Z,12.47
2023-05-09T22:37:42.469Z,12.20
2023-05-09T22:40:45.468Z,12.16
2023-05-09T22:43:48.532Z,12.23
2023-05-09T22:46:51.544Z,12.20
2023-05-09T22:49:54.890Z,12.24
2023-05-09T22:52:58.042Z,12.19
2023-05-09T22:56:01.209Z,12.17
2023-05-09T22:59:04.720Z,11.92
2023-05-09T23:02:07.789Z,12.09
2023-05-09T23:05:29.758Z,12.00
2023-05-09T23:08:33.980Z,11.95
2023-05-09T23:11:37.959Z,12.12
2023-05-09T23:14:41.071Z,12.08
2023-05-09T23:17:44.102Z,11.97
2023-05-09T23:20:47.440Z,12.00
2023-05-09T23:23:53.263Z,11.88
2023-05-09T23:26:56.488Z,11.81
2023-05-09T23:29:59.925Z,11.90
2023-05-09T23:33:05.008Z,11.81
2023-05-09T23:36:09.393Z,11.91
2023-05-09T23:39:12.638Z,12.04
2023-05-09T23:42:16.178Z,12.38
2023-05-09T23:45:19.352Z,12.40
2023-05-09T23:48:23.393Z,12.38
2023-05-09T23:51:26.588Z,12.38
2023-05-09T23:54:30.112Z,12.42
2023-05-09T23:57:33.388Z,12.40
